createdAt,value
2019-02-08T00:00:28.362Z,3.80
2019-02-08T00:03:31.168Z,3.80
2019-02-08T00:06:34.342Z,3.80
2019-02-08T00:09:37.188Z,3.80
2019-02-08T00:12:39.934Z,3.80
2019-02-08T00:15:43.835Z,3.80
2019-02-08T00:18:46.751Z,3.90
2019-02-08T00:21:49.492Z,3.90
2019-02-08T00:24:52.306Z,3.80
2019-02-08T00:27:54.966Z,3.80
2019-02-08T00:30:57.735Z,3.80
2019-02-08T00:34:00.652Z,3.80
2019-02-08T00:37:03.963Z,3.80
2019-02-08T00:40:09.271Z,3.90
2019-02-08T00:43:12.061Z,3.90
2019-02-08T00:46:14.893Z,3.90
2019-02-08T00:49:18.005Z,3.90
2019-02-08T00:52:21.531Z,3.90
2019-02-08T00:55:25.221Z,3.90
2019-02-08T00:58:27.884Z,3.90
2019-02-08T01:01:31.653Z,3.90
2019-02-08T01:04:35.538Z,3.90
2019-02-08T01:07:38.510Z,3.90
2019-02-08T01:10:41.266Z,3.90
2019-02-08T01:13:44.042Z,3.90
2019-02-08T01:16:46.777Z,3.90
2019-02-08T01:19:49.519Z,3.90
2019-02-08T01:22:52.333Z,3.90
2019-02-08T01:25:55.105Z,3.90
2019-02-08T01:28:57.758Z,3.90
2019-02-08T01:32:00.514Z,3.80
2019-02-08T01:35:04.919Z,3.90
2019-02-08T01:38:07.621Z,3.80
2019-02-08T01:41:10.392Z,3.90
2019-02-08T01:44:13.142Z,3.90
2019-02-08T01:47:15.924Z,3.90
2019-02-08T01:50:20.801Z,3.90
2019-02-08T01:53:23.571Z,3.90
2019-02-08T01:56:26.403Z,3.90
2019-02-08T01:59:29.183Z,3.90
2019-02-08T02:02:31.816Z,3.90
2019-02-08T02:05:34.483Z,3.90
2019-02-08T02:08:37.263Z,3.90
2019-02-08T02:11:39.989Z,3.80
2019-02-08T02:14:42.811Z,3.80
2019-02-08T02:17:45.668Z,3.80
2019-02-08T02:20:48.279Z,3.90
2019-02-08T02:23:56.045Z,3.90
2019-02-08T02:26:55.525Z,3.90
2019-02-08T02:29:58.283Z,3.90
2019-02-08T02:33:01.052Z,4.00
2019-02-08T02:36:03.877Z,3.90
2019-02-08T02:39:08.260Z,4.00
2019-02-08T02:42:11.698Z,4.00
2019-02-08T02:45:26.469Z,4.00
2019-02-08T02:48:29.172Z,4.00
2019-02-08T02:51:31.987Z,4.00
2019-02-08T02:54:34.689Z,4.00
2019-02-08T02:57:37.331Z,4.00
2019-02-08T03:00:45.334Z,3.90
2019-02-08T03:03:48.107Z,4.00
2019-02-08T03:06:50.795Z,4.00
2019-02-08T03:09:53.633Z,4.00
2019-02-08T03:12:56.492Z,4.00
2019-02-08T03:15:59.370Z,4.10
2019-02-08T03:19:02.102Z,4.10
2019-02-08T03:22:04.750Z,4.10
2019-02-08T03:25:08.973Z,4.10
2019-02-08T03:28:11.878Z,4.10
2019-02-08T03:31:14.503Z,4.10
2019-02-08T03:34:17.200Z,4.10
2019-02-08T03:37:19.896Z,4.00
2019-02-08T03:40:25.244Z,4.00
2019-02-08T03:43:28.037Z,4.00
2019-02-08T03:46:30.874Z,4.00
2019-02-08T03:49:33.583Z,4.00
2019-02-08T03:52:36.315Z,3.90
2019-02-08T03:55:39.158Z,3.90
2019-02-08T03:58:41.868Z,3.90
2019-02-08T04:01:44.535Z,3.90
2019-02-08T04:04:47.207Z,3.90
2019-02-08T04:07:49.908Z,3.90
2019-02-08T04:10:52.688Z,3.90
2019-02-08T04:13:55.466Z,3.90
2019-02-08T04:16:59.033Z,3.90
2019-02-08T04:20:01.814Z,3.90
2019-02-08T04:23:04.748Z,3.90
2019-02-08T04:26:07.367Z,3.80
2019-02-08T04:29:10.144Z,3.80
2019-02-08T04:32:12.882Z,3.80
2019-02-08T04:35:15.816Z,3.80
2019-02-08T04:38:18.661Z,3.80
2019-02-08T04:41:21.304Z,3.90
2019-02-08T04:44:24.118Z,3.90
2019-02-08T04:47:27.027Z,3.80
2019-02-08T04:50:29.711Z,3.80
2019-02-08T04:53:32.507Z,3.80
2019-02-08T04:56:35.239Z,3.80
2019-02-08T04:59:38.113Z,3.80
2019-02-08T05:02:40.926Z,3.70
2019-02-08T05:05:43.734Z,3.70
2019-02-08T05:08:46.619Z,3.70
2019-02-08T05:11:49.870Z,3.80
2019-02-08T05:14:52.889Z,3.70
2019-02-08T05:17:55.782Z,3.80
2019-02-08T05:20:58.420Z,3.70
2019-02-08T05:24:01.280Z,3.80
2019-02-08T05:27:04.915Z,3.80
2019-02-08T05:30:14.419Z,3.80
2019-02-08T05:33:17.162Z,3.80
2019-02-08T05:36:20.153Z,3.80
2019-02-08T05:39:22.990Z,3.70
2019-02-08T05:42:25.816Z,3.70
2019-02-08T05:45:28.679Z,3.70
2019-02-08T05:48:31.496Z,3.70
2019-02-08T05:51:34.436Z,3.70
2019-02-08T05:54:37.293Z,3.70
2019-02-08T05:57:40.081Z,3.80
2019-02-08T06:00:55.705Z,3.70
2019-02-08T06:03:58.746Z,3.70
2019-02-08T06:07:01.731Z,3.70
2019-02-08T06:10:06.448Z,3.70
2019-02-08T06:13:09.296Z,3.70
2019-02-08T06:16:12.081Z,3.70
2019-02-08T06:19:15.062Z,3.80
2019-02-08T06:22:17.938Z,3.70
2019-02-08T06:25:21.683Z,3.70
2019-02-08T06:28:24.635Z,3.80
2019-02-08T06:31:27.479Z,3.80
2019-02-08T06:34:30.180Z,3.80
2019-02-08T06:37:32.908Z,3.80
2019-02-08T06:40:38.147Z,3.80
2019-02-08T06:43:40.991Z,3.80
2019-02-08T06:46:43.946Z,3.80
2019-02-08T06:49:46.671Z,3.80
2019-02-08T06:52:49.475Z,3.90
2019-02-08T06:55:53.992Z,3.90
2019-02-08T06:59:11.617Z,3.80
2019-02-08T07:02:33.815Z,3.80
2019-02-08T07:05:45.768Z,3.70
2019-02-08T07:09:09.295Z,3.70
2019-02-08T07:12:34.434Z,3.70
2019-02-08T07:16:02.878Z,3.70
2019-02-08T07:19:30.905Z,3.80
2019-02-08T07:23:11.186Z,3.80
2019-02-08T07:26:39.444Z,3.70
2019-02-08T07:30:05.971Z,3.80
2019-02-08T07:33:20.350Z,3.70
2019-02-08T07:36:45.407Z,3.80
2019-02-08T07:40:00.358Z,3.80
2019-02-08T07:43:27.010Z,3.80
2019-02-08T07:46:55.450Z,3.80
2019-02-08T07:50:16.089Z,3.80
2019-02-08T07:53:47.091Z,3.70
2019-02-08T07:57:19.425Z,3.70
2019-02-08T08:00:58.698Z,3.70
2019-02-08T08:04:30.178Z,3.70
2019-02-08T08:07:51.906Z,3.70
2019-02-08T08:11:08.115Z,3.70
2019-02-08T08:14:23.729Z,3.70
2019-02-08T08:18:04.209Z,3.70
2019-02-08T08:21:38.537Z,3.70
2019-02-08T08:25:06.426Z,3.80
2019-02-08T08:28:31.532Z,3.80
2019-02-08T08:32:10.810Z,3.80
2019-02-08T08:36:02.729Z,3.90
2019-02-08T08:39:42.322Z,3.90
2019-02-08T08:43:22.837Z,3.90
2019-02-08T08:46:52.740Z,3.90
2019-02-08T08:50:21.240Z,4.00
2019-02-08T08:54:03.042Z,4.00
2019-02-08T08:57:20.145Z,4.10
2019-02-08T09:00:52.096Z,4.10
2019-02-08T09:04:45.920Z,4.00
2019-02-08T09:08:57.938Z,3.90
2019-02-08T09:12:50.101Z,3.90
2019-02-08T09:16:54.285Z,3.90
2019-02-08T09:20:32.166Z,3.90
2019-02-08T09:24:41.181Z,4.00
2019-02-08T09:28:18.973Z,4.10
2019-02-08T09:31:47.665Z,4.00
2019-02-08T09:35:25.373Z,4.00
2019-02-08T09:39:06.008Z,4.00
2019-02-08T09:42:56.578Z,4.00
2019-02-08T09:46:29.766Z,4.10
2019-02-08T09:50:06.227Z,4.20
2019-02-08T09:53:46.669Z,4.20
2019-02-08T09:57:25.290Z,4.20
2019-02-08T10:01:30.968Z,4.30
2019-02-08T10:05:19.344Z,4.30
2019-02-08T10:09:15.301Z,4.40
2019-02-08T10:13:03.564Z,4.30
2019-02-08T10:16:47.024Z,4.40
2019-02-08T10:20:18.339Z,4.40
2019-02-08T10:24:17.812Z,4.40
2019-02-08T10:27:56.753Z,4.50
2019-02-08T10:31:25.355Z,4.50
2019-02-08T10:35:21.960Z,4.50
2019-02-08T10:38:57.567Z,4.60
2019-02-08T10:42:37.676Z,4.60
2019-02-08T10:46:34.076Z,4.60
2019-02-08T10:50:25.173Z,4.70
2019-02-08T10:54:32.061Z,4.80
2019-02-08T10:58:37.736Z,4.70
2019-02-08T11:02:13.745Z,4.80
2019-02-08T11:06:13.150Z,4.90
2019-02-08T11:10:02.931Z,4.80
2019-02-08T11:13:33.530Z,4.80
2019-02-08T11:17:13.692Z,4.70
2019-02-08T11:20:16.375Z,4.70
2019-02-08T11:23:19.038Z,4.70
2019-02-08T11:26:24.158Z,4.70
2019-02-08T11:29:26.610Z,4.70
2019-02-08T11:32:42.945Z,4.80
2019-02-08T11:35:33.852Z,4.90
2019-02-08T11:38:36.523Z,5.00
2019-02-08T11:41:39.407Z,4.90
2019-02-08T11:44:41.969Z,5.00
2019-02-08T11:47:44.719Z,4.90
2019-02-08T11:50:47.383Z,4.90
2019-02-08T11:53:50.139Z,4.80
2019-02-08T11:56:52.906Z,4.80
2019-02-08T11:59:55.685Z,4.80
2019-02-08T12:02:58.299Z,4.90
2019-02-08T12:06:01.043Z,5.00
2019-02-08T12:09:12.016Z,5.00
2019-02-08T12:12:14.669Z,5.10
2019-02-08T12:15:18.056Z,5.10
2019-02-08T12:18:20.786Z,5.20
2019-02-08T12:21:23.636Z,5.20
2019-02-08T12:24:26.375Z,5.20
2019-02-08T12:27:30.297Z,5.20
2019-02-08T12:30:45.447Z,5.20
2019-02-08T12:33:48.167Z,5.30
2019-02-08T12:36:50.907Z,5.40
2019-02-08T12:39:53.677Z,5.50
2019-02-08T12:42:56.355Z,5.60
2019-02-08T12:45:59.218Z,5.70
2019-02-08T12:49:02.438Z,5.80
2019-02-08T12:52:05.108Z,6.00
2019-02-08T12:55:08.926Z,6.80
2019-02-08T12:58:11.686Z,7.30
2019-02-08T13:01:14.398Z,7.30
2019-02-08T13:04:17.136Z,6.80
2019-02-08T13:07:20.780Z,6.30
2019-02-08T13:10:23.948Z,5.90
2019-02-08T13:13:26.695Z,5.80
2019-02-08T13:16:29.526Z,5.70
2019-02-08T13:19:32.240Z,5.60
2019-02-08T13:22:34.943Z,5.70
2019-02-08T13:25:37.618Z,5.80
2019-02-08T13:28:41.385Z,5.80
2019-02-08T13:31:44.146Z,5.80
2019-02-08T13:34:46.831Z,5.80
2019-02-08T13:37:50.027Z,5.80
2019-02-08T13:40:52.747Z,5.70
2019-02-08T13:43:55.345Z,5.50
2019-02-08T13:46:57.937Z,5.60
2019-02-08T13:50:00.701Z,5.40
2019-02-08T13:53:03.983Z,5.30
2019-02-08T13:56:06.655Z,5.30
2019-02-08T13:59:09.317Z,5.20
2019-02-08T14:02:11.981Z,5.10
2019-02-08T14:05:14.782Z,5.00
2019-02-08T14:08:17.743Z,5.00
2019-02-08T14:11:20.478Z,4.90
2019-02-08T14:14:23.194Z,4.90
2019-02-08T14:17:25.916Z,4.90
2019-02-08T14:20:29.111Z,4.80
2019-02-08T14:23:31.765Z,4.80
2019-02-08T14:26:34.507Z,4.80
2019-02-08T14:29:37.195Z,4.70
2019-02-08T14:32:40.041Z,4.70
2019-02-08T14:35:42.661Z,4.60
2019-02-08T14:38:45.523Z,4.70
2019-02-08T14:41:48.298Z,4.70
2019-02-08T14:44:51.015Z,4.70
2019-02-08T14:47:53.715Z,4.70
2019-02-08T14:50:56.589Z,4.70
2019-02-08T14:53:59.358Z,4.70
2019-02-08T14:57:02.068Z,4.70
2019-02-08T15:00:09.760Z,4.70
2019-02-08T15:03:12.791Z,4.70
2019-02-08T15:06:15.542Z,4.70
2019-02-08T15:09:18.253Z,4.70
2019-02-08T15:12:21.052Z,4.70
2019-02-08T15:15:23.946Z,4.70
2019-02-08T15:18:27.055Z,4.70
2019-02-08T15:21:29.955Z,4.60
2019-02-08T15:24:33.015Z,4.60
2019-02-08T15:27:35.759Z,4.50
2019-02-08T15:30:38.630Z,4.50
2019-02-08T15:33:41.353Z,4.50
2019-02-08T15:36:49.228Z,4.50
2019-02-08T15:39:48.704Z,4.50
2019-02-08T15:42:51.456Z,4.50
2019-02-08T15:46:02.622Z,4.50
2019-02-08T15:49:05.418Z,4.50
2019-02-08T15:52:08.199Z,4.50
2019-02-08T15:55:17.304Z,4.50
2019-02-08T15:58:21.240Z,4.50
2019-02-08T16:01:24.021Z,4.50
2019-02-08T16:04:26.795Z,4.50
2019-02-08T16:07:29.580Z,4.50
2019-02-08T16:10:32.470Z,4.40
2019-02-08T16:13:35.171Z,4.40
2019-02-08T16:16:37.892Z,4.40
2019-02-08T16:19:40.665Z,4.40
2019-02-08T16:22:43.467Z,4.40
2019-02-08T16:25:46.254Z,4.30
2019-02-08T16:28:49.041Z,4.40
2019-02-08T16:31:51.810Z,4.40
2019-02-08T16:34:55.846Z,4.40
2019-02-08T16:37:58.726Z,4.40
2019-02-08T16:41:01.627Z,4.30
2019-02-08T16:44:04.591Z,4.30
2019-02-08T16:47:07.919Z,4.30
2019-02-08T16:50:13.362Z,4.30
2019-02-08T16:53:16.060Z,4.30
2019-02-08T16:56:18.805Z,4.30
2019-02-08T16:59:21.643Z,4.30
2019-02-08T17:02:24.452Z,4.40
2019-02-08T17:05:28.503Z,4.30
2019-02-08T17:08:31.251Z,4.40
2019-02-08T17:11:33.916Z,4.40
2019-02-08T17:14:36.730Z,4.40
2019-02-08T17:17:39.535Z,4.40
2019-02-08T17:20:44.137Z,4.50
2019-02-08T17:23:46.828Z,4.50
2019-02-08T17:26:49.584Z,4.50
2019-02-08T17:29:52.333Z,4.50
2019-02-08T17:32:55.100Z,4.50
2019-02-08T17:35:57.760Z,4.50
2019-02-08T17:39:00.531Z,4.60
2019-02-08T17:42:03.609Z,4.60
2019-02-08T17:45:08.512Z,4.50
2019-02-08T17:48:13.472Z,4.50
2019-02-08T17:51:16.347Z,4.50
2019-02-08T17:54:25.562Z,4.60
2019-02-08T17:57:24.532Z,4.60
2019-02-08T18:01:05.487Z,4.60
2019-02-08T18:04:08.725Z,4.60
2019-02-08T18:07:12.361Z,4.60
2019-02-08T18:10:17.810Z,4.60
2019-02-08T18:13:21.296Z,4.60
2019-02-08T18:16:24.256Z,4.60
2019-02-08T18:19:26.990Z,4.60
2019-02-08T18:22:29.670Z,4.60
2019-02-08T18:25:32.491Z,4.60
2019-02-08T18:28:36.034Z,4.60
2019-02-08T18:31:38.947Z,4.60
2019-02-08T18:34:41.654Z,4.60
2019-02-08T18:37:44.332Z,4.60
2019-02-08T18:40:48.708Z,4.60
2019-02-08T18:43:51.404Z,4.60
2019-02-08T18:46:54.210Z,4.60
2019-02-08T18:49:57.029Z,4.60
2019-02-08T18:52:59.816Z,4.60
2019-02-08T18:56:02.532Z,4.60
2019-02-08T18:59:05.363Z,4.60
2019-02-08T19:02:08.116Z,4.60
2019-02-08T19:05:11.623Z,4.60
2019-02-08T19:08:14.428Z,4.50
2019-02-08T19:11:17.210Z,4.60
2019-02-08T19:14:19.947Z,4.60
2019-02-08T19:17:22.780Z,4.60
2019-02-08T19:20:25.618Z,4.60
2019-02-08T19:23:28.434Z,4.60
2019-02-08T19:26:31.199Z,4.60
2019-02-08T19:29:34.023Z,4.60
2019-02-08T19:32:37.029Z,4.60
2019-02-08T19:35:40.151Z,4.60
2019-02-08T19:38:43.027Z,4.70
2019-02-08T19:41:45.837Z,4.60
2019-02-08T19:44:48.692Z,4.60
2019-02-08T19:47:52.216Z,4.70
2019-02-08T19:50:54.930Z,4.70
2019-02-08T19:53:57.836Z,4.70
2019-02-08T19:57:00.794Z,4.70
2019-02-08T20:00:09.077Z,4.70
2019-02-08T20:03:12.356Z,4.70
2019-02-08T20:06:34.575Z,4.70
2019-02-08T20:09:37.380Z,4.70
2019-02-08T20:12:40.234Z,4.70
2019-02-08T20:15:43.513Z,4.70
2019-02-08T20:18:46.272Z,4.80
2019-02-08T20:21:49.044Z,4.80
2019-02-08T20:24:51.818Z,4.80
2019-02-08T20:27:54.638Z,4.80
2019-02-08T20:30:57.368Z,4.80
2019-02-08T20:34:00.173Z,4.90
2019-02-08T20:37:03.032Z,4.80
2019-02-08T20:40:07.679Z,4.80
2019-02-08T20:43:10.375Z,4.80
2019-02-08T20:46:13.127Z,4.80
2019-02-08T20:49:15.936Z,4.90
2019-02-08T20:52:18.788Z,4.90
2019-02-08T20:55:23.013Z,4.90
2019-02-08T20:58:25.941Z,4.80
2019-02-08T21:01:28.680Z,4.90
2019-02-08T21:04:31.478Z,4.80
2019-02-08T21:07:34.266Z,4.90
2019-02-08T21:10:38.489Z,4.90
2019-02-08T21:13:41.182Z,4.80
2019-02-08T21:16:43.979Z,4.80
2019-02-08T21:19:46.689Z,4.80
2019-02-08T21:22:49.722Z,4.80
2019-02-08T21:25:52.601Z,4.80
2019-02-08T21:28:58.088Z,4.90
2019-02-08T21:32:00.480Z,4.90
2019-02-08T21:35:05.366Z,4.80
2019-02-08T21:38:08.958Z,4.80
2019-02-08T21:41:11.773Z,4.80
2019-02-08T21:44:14.484Z,4.80
2019-02-08T21:47:17.270Z,4.80
2019-02-08T21:50:20.456Z,4.80
2019-02-08T21:53:23.291Z,4.80
2019-02-08T21:56:26.446Z,4.90
2019-02-08T21:59:29.581Z,4.90
2019-02-08T22:02:32.590Z,4.80
2019-02-08T22:05:47.386Z,4.90
2019-02-08T22:08:50.094Z,4.90
2019-02-08T22:11:52.958Z,4.90
2019-02-08T22:14:55.690Z,4.90
2019-02-08T22:17:58.545Z,4.90
2019-02-08T22:21:01.311Z,4.90
2019-02-08T22:24:04.168Z,5.00
2019-02-08T22:27:07.059Z,5.00
2019-02-08T22:30:13.271Z,5.00
2019-02-08T22:33:16.903Z,5.00
2019-02-08T22:36:19.687Z,5.10
2019-02-08T22:39:23.260Z,5.10
2019-02-08T22:42:26.300Z,5.10
2019-02-08T22:45:31.053Z,5.10
2019-02-08T22:48:33.990Z,5.10
2019-02-08T22:51:36.740Z,5.10
2019-02-08T22:54:39.483Z,5.10
2019-02-08T22:57:42.146Z,5.10
2019-02-08T23:01:20.196Z,5.10
2019-02-08T23:04:22.930Z,5.10
2019-02-08T23:07:25.660Z,5.10
2019-02-08T23:10:28.579Z,5.10
2019-02-08T23:13:31.488Z,5.10
2019-02-08T23:16:34.194Z,5.10
2019-02-08T23:19:36.938Z,5.10
2019-02-08T23:22:39.538Z,5.10
2019-02-08T23:25:42.212Z,5.10
2019-02-08T23:28:44.909Z,5.10
2019-02-08T23:31:47.522Z,5.10
2019-02-08T23:34:50.171Z,5.10
2019-02-08T23:37:52.841Z,5.10
2019-02-08T23:40:55.457Z,5.10
2019-02-08T23:43:58.231Z,5.00
2019-02-08T23:47:00.933Z,5.10
2019-02-08T23:50:05.511Z,5.10
2019-02-08T23:53:08.343Z,5.10
2019-02-08T23:56:11.164Z,5.00
2019-02-08T23:59:13.860Z,5.10
